createdAt,value
2018-10-01T00:01:51.872Z,99419.33
2018-10-01T00:04:19.522Z,99417.09
2018-10-01T00:06:47.269Z,99420.03
2018-10-01T00:09:14.898Z,99418.15
2018-10-01T00:11:42.558Z,99420.03
2018-10-01T00:14:10.190Z,99416.72
2018-10-01T00:16:37.848Z,99421.11
2018-10-01T00:19:11.277Z,99421.33
2018-10-01T00:22:48.572Z,99428.21
2018-10-01T00:25:16.796Z,99431.36
2018-10-01T00:27:44.502Z,99429.13
2018-10-01T00:30:12.323Z,99430.48
2018-10-01T00:32:39.974Z,99437.05
2018-10-01T00:35:07.823Z,99432.02
2018-10-01T00:37:35.477Z,99430.06
2018-10-01T00:40:03.146Z,99426.95
2018-10-01T00:42:30.816Z,99417.16
2018-10-01T00:44:58.548Z,99421.37
2018-10-01T00:47:26.394Z,99416.72
2018-10-01T00:49:54.270Z,99410.64
2018-10-01T00:52:21.969Z,99410.24
2018-10-01T00:54:49.650Z,99404.56
2018-10-01T00:57:17.294Z,99399.41
2018-10-01T00:59:44.995Z,99403.12
2018-10-01T01:02:12.721Z,99404.66
2018-10-01T01:04:40.496Z,99396.77
2018-10-01T01:07:09.921Z,99393.77
2018-10-01T01:09:37.566Z,99392.33
2018-10-01T01:12:05.490Z,99389.58
2018-10-01T01:14:33.161Z,99388.58
2018-10-01T01:17:00.933Z,99391.05
2018-10-01T01:19:28.602Z,99401.34
2018-10-01T01:21:56.478Z,99396.97
2018-10-01T01:24:24.161Z,99392.61
2018-10-01T01:26:52.001Z,99381.44
2018-10-01T01:29:19.737Z,99395.98
2018-10-01T01:31:48.018Z,99397.59
2018-10-01T01:34:35.696Z,99393.58
2018-10-01T01:37:03.859Z,99391.06
2018-10-01T01:39:31.512Z,99387.05
2018-10-01T01:41:59.375Z,99384.31
2018-10-01T01:44:27.116Z,99384.08
2018-10-01T01:46:54.754Z,99383.47
2018-10-01T01:49:22.518Z,99377.77
2018-10-01T01:51:50.361Z,99375.13
2018-10-01T01:54:18.038Z,99379.31
2018-10-01T01:56:45.761Z,99379.91
2018-10-01T01:59:13.686Z,99370.52
2018-10-01T02:01:41.302Z,99370.48
2018-10-01T02:04:09.062Z,99362.77
2018-10-01T02:06:36.734Z,99361.46
2018-10-01T02:09:07.360Z,99360.96
2018-10-01T02:11:35.065Z,99364.00
2018-10-01T02:14:02.745Z,99363.23
2018-10-01T02:16:30.403Z,99364.67
2018-10-01T02:18:58.082Z,99362.13
2018-10-01T02:21:25.796Z,99358.95
2018-10-01T02:23:53.440Z,99362.31
2018-10-01T02:26:21.094Z,99361.70
2018-10-01T02:28:48.778Z,99367.02
2018-10-01T02:31:17.076Z,99355.58
2018-10-01T02:33:44.789Z,99352.14
2018-10-01T02:36:12.449Z,99356.55
2018-10-01T02:38:40.136Z,99349.31
2018-10-01T02:41:08.179Z,99350.14
2018-10-01T02:43:35.898Z,99347.39
2018-10-01T02:46:03.626Z,99341.34
2018-10-01T02:48:31.434Z,99341.40
2018-10-01T02:50:59.336Z,99335.87
2018-10-01T02:53:32.737Z,99337.64
2018-10-01T02:56:00.397Z,99334.52
2018-10-01T02:58:28.088Z,99344.94
2018-10-01T03:00:55.800Z,99342.28
2018-10-01T03:03:37.309Z,99337.72
2018-10-01T03:06:04.978Z,99330.09
2018-10-01T03:08:32.603Z,99335.67
2018-10-01T03:11:00.302Z,99329.44
2018-10-01T03:13:27.956Z,99323.12
2018-10-01T03:15:55.627Z,99324.47
2018-10-01T03:18:23.285Z,99316.93
2018-10-01T03:20:50.969Z,99318.94
2018-10-01T03:23:18.991Z,99301.63
2018-10-01T03:25:47.301Z,99309.14
2018-10-01T03:28:15.471Z,99311.88
2018-10-01T03:30:43.103Z,99303.20
2018-10-01T03:33:10.767Z,99300.41
2018-10-01T03:35:38.424Z,99298.00
2018-10-01T03:38:06.167Z,99303.34
2018-10-01T03:40:33.949Z,99304.51
2018-10-01T03:43:02.376Z,99297.73
2018-10-01T03:45:30.141Z,99294.78
2018-10-01T03:47:57.836Z,99296.83
2018-10-01T03:50:25.589Z,99297.42
2018-10-01T03:52:53.341Z,99292.84
2018-10-01T03:55:20.983Z,99294.34
2018-10-01T03:57:48.667Z,99289.70
2018-10-01T04:00:16.397Z,99301.16
2018-10-01T04:02:44.139Z,99308.27
2018-10-01T04:05:11.843Z,99299.28
2018-10-01T04:07:39.897Z,99292.24
2018-10-01T04:10:07.571Z,99290.78
2018-10-01T04:12:35.214Z,99288.97
2018-10-01T04:15:02.901Z,99292.14
2018-10-01T04:17:30.736Z,99300.77
2018-10-01T04:19:58.434Z,99297.92
2018-10-01T04:22:32.288Z,99294.03
2018-10-01T04:24:59.929Z,99295.97
2018-10-01T04:27:27.557Z,99295.62
2018-10-01T04:29:55.253Z,99289.02
2018-10-01T04:32:22.931Z,99295.30
2018-10-01T04:34:50.584Z,99297.20
2018-10-01T04:37:18.207Z,99291.38
2018-10-01T04:39:45.856Z,99286.61
2018-10-01T04:42:13.544Z,99301.89
2018-10-01T04:44:41.264Z,99311.25
2018-10-01T04:47:09.054Z,99310.44
2018-10-01T04:49:36.700Z,99315.56
2018-10-01T04:52:04.374Z,99312.40
2018-10-01T04:54:32.014Z,99319.39
2018-10-01T04:56:59.701Z,99311.13
2018-10-01T04:59:27.381Z,99323.63
2018-10-01T05:01:55.028Z,99324.00
2018-10-01T05:04:22.720Z,99325.42
2018-10-01T05:06:50.412Z,99322.61
2018-10-01T05:09:18.004Z,99329.98
2018-10-01T05:11:45.666Z,99332.59
2018-10-01T05:14:13.362Z,99329.87
2018-10-01T05:16:41.052Z,99339.59
2018-10-01T05:19:08.709Z,99333.42
2018-10-01T05:21:36.434Z,99339.60
2018-10-01T05:24:04.114Z,99342.21
2018-10-01T05:26:31.899Z,99341.05
2018-10-01T05:28:59.574Z,99349.61
2018-10-01T05:31:27.219Z,99345.55
2018-10-01T05:33:54.993Z,99350.86
2018-10-01T05:36:22.647Z,99350.51
2018-10-01T05:38:50.351Z,99345.85
2018-10-01T05:41:18.078Z,99347.75
2018-10-01T05:43:46.305Z,99351.22
2018-10-01T05:46:13.977Z,99363.12
2018-10-01T05:48:41.785Z,99361.28
2018-10-01T05:51:09.525Z,99370.66
2018-10-01T05:53:37.201Z,99368.87
2018-10-01T05:56:05.842Z,99373.06
2018-10-01T05:58:33.741Z,99364.20
2018-10-01T06:01:01.397Z,99364.10
2018-10-01T06:03:29.169Z,99371.05
2018-10-01T06:05:56.831Z,99370.22
2018-10-01T06:08:24.698Z,99376.71
2018-10-01T06:10:52.432Z,99382.56
2018-10-01T06:13:20.215Z,99335.92
2018-10-01T06:15:48.603Z,99383.83
2018-10-01T06:18:16.379Z,99386.27
2018-10-01T06:20:44.150Z,99395.66
2018-10-01T06:23:11.768Z,99397.77
2018-10-01T06:25:39.608Z,99402.22
2018-10-01T06:28:07.672Z,99407.17
2018-10-01T06:30:35.344Z,99404.14
2018-10-01T06:33:03.064Z,99409.45
2018-10-01T06:35:30.812Z,99414.53
2018-10-01T06:37:58.607Z,99413.27
2018-10-01T06:40:26.399Z,99421.27
2018-10-01T06:42:54.233Z,99414.72
2018-10-01T06:45:22.022Z,99414.95
2018-10-01T06:47:49.749Z,99416.76
2018-10-01T06:50:17.352Z,99417.77
2018-10-01T06:52:45.086Z,99421.16
2018-10-01T06:55:12.859Z,99418.81
2018-10-01T06:57:40.576Z,99419.09
2018-10-01T07:00:08.989Z,99416.28
2018-10-01T07:02:36.612Z,99427.70
2018-10-01T07:05:04.334Z,99425.70
2018-10-01T07:07:32.210Z,99426.16
2018-10-01T07:09:59.862Z,99425.69
2018-10-01T07:12:27.592Z,99436.81
2018-10-01T07:14:55.369Z,99443.17
2018-10-01T07:17:23.238Z,99455.22
2018-10-01T07:19:50.771Z,99450.05
2018-10-01T07:22:18.439Z,99454.06
2018-10-01T07:24:46.136Z,99454.27
2018-10-01T07:27:13.755Z,99446.98
2018-10-01T07:29:41.522Z,99453.70
2018-10-01T07:32:09.225Z,99445.47
2018-10-01T07:34:36.894Z,99443.16
2018-10-01T07:37:04.619Z,99434.50
2018-10-01T07:39:32.407Z,99446.20
2018-10-01T07:42:00.122Z,99432.55
2018-10-01T07:44:27.820Z,99442.02
2018-10-01T07:46:55.540Z,99449.54
2018-10-01T07:49:23.300Z,99461.64
2018-10-01T07:51:51.070Z,99461.73
2018-10-01T07:54:18.775Z,99461.62
2018-10-01T07:56:46.486Z,99466.03
2018-10-01T07:59:14.206Z,99467.41
2018-10-01T08:01:42.056Z,99462.94
2018-10-01T08:04:10.004Z,99464.45
2018-10-01T08:06:37.634Z,99462.85
2018-10-01T08:09:08.501Z,99465.01
2018-10-01T08:11:36.136Z,99471.80
2018-10-01T08:14:04.071Z,99484.98
2018-10-01T08:16:31.745Z,99487.39
2018-10-01T08:18:59.400Z,99480.41
2018-10-01T08:21:27.051Z,99484.66
2018-10-01T08:23:54.910Z,99486.67
2018-10-01T08:26:22.746Z,99488.33
2018-10-01T08:28:50.411Z,99491.38
2018-10-01T08:31:18.204Z,99495.73
2018-10-01T08:33:45.826Z,99490.29
2018-10-01T08:36:13.558Z,99477.43
2018-10-01T08:38:41.373Z,99480.52
2018-10-01T08:41:09.172Z,99486.08
2018-10-01T08:43:36.878Z,99481.41
2018-10-01T08:46:04.638Z,99492.59
2018-10-01T08:48:34.773Z,99493.95
2018-10-01T08:51:15.162Z,99495.16
2018-10-01T08:53:48.513Z,99495.98
2018-10-01T08:56:16.393Z,99493.56
2018-10-01T08:58:44.057Z,99501.09
2018-10-01T09:01:11.772Z,99500.58
2018-10-01T09:03:39.464Z,99502.67
2018-10-01T09:06:07.157Z,99503.71
2018-10-01T09:08:34.941Z,99496.91
2018-10-01T09:11:02.630Z,99496.97
2018-10-01T09:13:30.397Z,99487.64
2018-10-01T09:15:58.142Z,99496.47
2018-10-01T09:18:26.029Z,99499.38
2018-10-01T09:20:54.400Z,99496.43
2018-10-01T09:23:22.153Z,99488.67
2018-10-01T09:25:49.942Z,99501.91
2018-10-01T09:28:17.584Z,99496.65
2018-10-01T09:30:45.183Z,99503.28
2018-10-01T09:33:12.817Z,99504.32
2018-10-01T09:35:40.515Z,99505.14
2018-10-01T09:38:08.242Z,99454.61
2018-10-01T09:40:35.848Z,99490.25
2018-10-01T09:43:03.682Z,99495.48
2018-10-01T09:45:31.396Z,99495.19
2018-10-01T09:47:59.417Z,99498.34
2018-10-01T09:50:27.179Z,99500.03
2018-10-01T09:52:55.192Z,99502.62
2018-10-01T09:55:22.922Z,99504.77
2018-10-01T09:57:50.734Z,99503.34
2018-10-01T10:00:24.364Z,99507.00
2018-10-01T10:02:52.186Z,99506.97
2018-10-01T10:05:19.858Z,99508.64
2018-10-01T10:07:47.544Z,99507.08
2018-10-01T10:10:15.268Z,99515.22
2018-10-01T10:12:42.894Z,99507.64
2018-10-01T10:15:10.665Z,99514.73
2018-10-01T10:17:38.334Z,99511.30
2018-10-01T10:20:06.176Z,99510.80
2018-10-01T10:22:34.088Z,99520.03
2018-10-01T10:25:01.640Z,99522.03
2018-10-01T10:27:29.328Z,99524.27
2018-10-01T10:30:01.603Z,99517.84
2018-10-01T10:32:29.394Z,99523.22
2018-10-01T10:34:57.071Z,99516.52
2018-10-01T10:37:24.816Z,99513.58
2018-10-01T10:39:52.481Z,99516.80
2018-10-01T10:42:20.233Z,99509.80
2018-10-01T10:44:47.883Z,99520.55
2018-10-01T10:47:15.596Z,99516.42
2018-10-01T10:49:43.324Z,99520.34
2018-10-01T10:52:11.028Z,99519.75
2018-10-01T10:54:38.691Z,99517.10
2018-10-01T10:57:06.433Z,99507.96
2018-10-01T10:59:34.047Z,99512.41
2018-10-01T11:02:01.722Z,99509.69
2018-10-01T11:04:29.440Z,99512.70
2018-10-01T11:06:57.141Z,99508.30
2018-10-01T11:09:24.785Z,99522.68
2018-10-01T11:11:52.556Z,99520.77
2018-10-01T11:14:20.265Z,99514.08
2018-10-01T11:16:47.828Z,99518.29
2018-10-01T11:19:15.670Z,99523.03
2018-10-01T11:21:43.537Z,99523.28
2018-10-01T11:24:11.145Z,99528.33
2018-10-01T11:26:38.783Z,99518.67
2018-10-01T11:29:06.973Z,99521.86
2018-10-01T11:31:34.581Z,99517.17
2018-10-01T11:34:02.184Z,99516.38
2018-10-01T11:36:29.903Z,99508.30
2018-10-01T11:38:57.547Z,99509.02
2018-10-01T11:41:25.325Z,99526.42
2018-10-01T11:43:52.985Z,99519.22
2018-10-01T11:46:20.693Z,99525.17
2018-10-01T11:48:48.305Z,99522.53
2018-10-01T11:51:16.020Z,99524.27
2018-10-01T11:53:43.625Z,99523.66
2018-10-01T11:56:11.294Z,99516.40
2018-10-01T11:58:38.965Z,99522.38
2018-10-01T12:01:06.678Z,99530.84
2018-10-01T12:03:34.393Z,99519.81
2018-10-01T12:06:02.018Z,99527.34
2018-10-01T12:08:29.642Z,99521.11
2018-10-01T12:10:57.275Z,99529.22
2018-10-01T12:13:24.910Z,99520.61
2018-10-01T12:15:52.697Z,99530.14
2018-10-01T12:18:20.198Z,99528.94
2018-10-01T12:20:47.858Z,99525.70
2018-10-01T12:23:15.535Z,99541.25
2018-10-01T12:25:43.116Z,99523.83
2018-10-01T12:28:10.786Z,99530.30
2018-10-01T12:30:38.468Z,99540.71
2018-10-01T12:33:06.111Z,99566.75
2018-10-01T12:35:33.954Z,99533.25
2018-10-01T12:38:01.624Z,99539.80
2018-10-01T12:40:29.259Z,99541.09
2018-10-01T12:42:56.975Z,99539.19
2018-10-01T12:45:24.685Z,99540.98
2018-10-01T12:47:52.343Z,99537.22
2018-10-01T12:50:20.029Z,99530.73
2018-10-01T12:52:47.588Z,99537.10
2018-10-01T12:55:15.254Z,99528.36
2018-10-01T12:57:42.898Z,99538.88
2018-10-01T13:00:10.551Z,99539.40
2018-10-01T13:02:38.737Z,99539.72
2018-10-01T13:05:06.520Z,99527.51
2018-10-01T13:07:34.440Z,99536.63
2018-10-01T13:10:02.143Z,99534.17
2018-10-01T13:12:29.953Z,99541.09
2018-10-01T13:14:57.911Z,99538.20
2018-10-01T13:17:25.904Z,99539.50
2018-10-01T13:19:54.098Z,99545.41
2018-10-01T13:22:22.270Z,99541.36
2018-10-01T13:24:50.330Z,99542.41
2018-10-01T13:27:18.644Z,99548.16
2018-10-01T13:29:48.075Z,99547.30
2018-10-01T13:32:16.823Z,99556.70
2018-10-01T13:34:44.467Z,99549.20
2018-10-01T13:37:13.374Z,99556.17
2018-10-01T13:39:41.344Z,99555.89
2018-10-01T13:42:09.428Z,99560.91
2018-10-01T13:44:38.196Z,99559.85
2018-10-01T13:47:06.305Z,99563.01
2018-10-01T13:49:34.370Z,99566.75
2018-10-01T13:52:02.089Z,99562.36
2018-10-01T13:54:29.831Z,99559.15
2018-10-01T13:56:57.495Z,99562.70
2018-10-01T13:59:25.834Z,99565.30
2018-10-01T14:01:53.940Z,99560.69
2018-10-01T14:04:21.597Z,99569.27
2018-10-01T14:06:49.238Z,99562.44
2018-10-01T14:09:17.117Z,99561.44
2018-10-01T14:11:44.938Z,99571.16
2018-10-01T14:14:12.679Z,99571.59
2018-10-01T14:16:40.418Z,99565.66
2018-10-01T14:19:08.097Z,99579.02
2018-10-01T14:21:35.774Z,99570.19
2018-10-01T14:24:03.874Z,99569.61
2018-10-01T14:26:31.562Z,99574.73
2018-10-01T14:28:59.181Z,99586.06
2018-10-01T14:31:26.934Z,99581.06
2018-10-01T14:33:54.620Z,99583.86
2018-10-01T14:36:22.459Z,99583.95
2018-10-01T14:38:50.223Z,99581.77
2018-10-01T14:41:17.972Z,99592.66
2018-10-01T14:43:45.645Z,99590.95
2018-10-01T14:46:13.274Z,99585.34
2018-10-01T14:48:41.040Z,99586.64
2018-10-01T14:51:09.594Z,99591.95
2018-10-01T14:53:37.279Z,99598.62
2018-10-01T14:56:05.131Z,99595.13
2018-10-01T14:58:32.828Z,99600.62
2018-10-01T15:01:01.098Z,99589.54
2018-10-01T15:03:28.696Z,99605.73
2018-10-01T15:05:56.761Z,99598.86
2018-10-01T15:08:24.982Z,99610.25
2018-10-01T15:13:42.991Z,99619.50
2018-10-01T15:16:10.912Z,99625.07
2018-10-01T15:18:38.715Z,99633.76
2018-10-01T15:21:06.851Z,99641.20
2018-10-01T15:23:37.204Z,99645.10
2018-10-01T15:26:05.000Z,99636.18
2018-10-01T15:28:32.955Z,99640.77
2018-10-01T15:31:00.691Z,99640.41
2018-10-01T15:33:28.611Z,99647.45
2018-10-01T15:35:56.709Z,99652.65
2018-10-01T15:38:24.615Z,99652.83
2018-10-01T15:40:52.450Z,99655.60
2018-10-01T15:43:20.179Z,99660.91
2018-10-01T15:45:48.181Z,99663.12
2018-10-01T15:48:15.967Z,99654.45
2018-10-01T15:50:43.817Z,99653.81
2018-10-01T15:53:11.765Z,99643.31
2018-10-01T15:55:39.707Z,99652.15
2018-10-01T15:58:07.499Z,99654.38
2018-10-01T16:00:35.161Z,99653.26
2018-10-01T16:03:02.969Z,99652.50
2018-10-01T16:05:30.630Z,99657.34
2018-10-01T16:07:58.284Z,99647.20
2018-10-01T16:10:26.051Z,99652.30
2018-10-01T16:12:53.783Z,99663.13
2018-10-01T16:15:21.490Z,99659.95
2018-10-01T16:17:49.221Z,99657.32
2018-10-01T16:20:16.934Z,99658.31
2018-10-01T16:22:44.761Z,99664.78
2018-10-01T16:25:12.493Z,99678.87
2018-10-01T16:27:40.192Z,99665.95
2018-10-01T16:30:08.356Z,99670.39
2018-10-01T16:32:36.113Z,99679.79
2018-10-01T16:35:03.870Z,99671.67
2018-10-01T16:37:31.663Z,99678.64
2018-10-01T16:39:59.414Z,99683.79
2018-10-01T16:42:27.290Z,99686.20
2018-10-01T16:44:55.138Z,99677.52
2018-10-01T16:47:22.829Z,99686.38
2018-10-01T16:49:50.626Z,99693.98
2018-10-01T16:52:18.508Z,99690.81
2018-10-01T16:54:46.349Z,99701.74
2018-10-01T16:57:14.229Z,99699.05
2018-10-01T16:59:42.133Z,99706.47
2018-10-01T17:02:09.969Z,99707.76
2018-10-01T17:04:37.809Z,99709.28
2018-10-01T17:07:05.659Z,99710.39
2018-10-01T17:09:33.852Z,99710.90
2018-10-01T17:12:01.640Z,99718.86
2018-10-01T17:14:29.484Z,99718.64
2018-10-01T17:16:57.269Z,99730.08
2018-10-01T17:19:25.333Z,99729.95
2018-10-01T17:21:53.229Z,99733.77
2018-10-01T17:24:21.271Z,99741.28
2018-10-01T17:26:49.287Z,99734.98
2018-10-01T17:29:17.309Z,99732.95
2018-10-01T17:31:45.425Z,99749.75
2018-10-01T17:34:13.339Z,99742.72
2018-10-01T17:36:41.312Z,99744.05
2018-10-01T17:39:09.635Z,99749.05
2018-10-01T17:41:37.871Z,99750.84
2018-10-01T17:44:05.683Z,99754.06
2018-10-01T17:46:33.454Z,99762.28
2018-10-01T17:49:01.117Z,99761.19
2018-10-01T17:51:29.210Z,99761.92
2018-10-01T17:53:56.873Z,99765.95
2018-10-01T17:56:24.528Z,99764.78
2018-10-01T17:58:52.287Z,99776.34
2018-10-01T18:01:20.487Z,99776.36
2018-10-01T18:03:49.978Z,99776.44
2018-10-01T18:06:17.945Z,99771.45
2018-10-01T18:08:45.863Z,99778.63
2018-10-01T18:11:13.742Z,99774.21
2018-10-01T18:13:41.591Z,99777.44
2018-10-01T18:16:09.423Z,99780.41
2018-10-01T18:18:37.103Z,99784.92
2018-10-01T18:21:04.788Z,99778.45
2018-10-01T18:23:32.610Z,99781.66
2018-10-01T18:26:00.315Z,99777.88
2018-10-01T18:28:28.019Z,99780.50
2018-10-01T18:30:55.903Z,99786.81
2018-10-01T18:33:23.551Z,99781.48
2018-10-01T18:35:51.352Z,99786.61
2018-10-01T18:38:19.966Z,99786.84
2018-10-01T18:40:47.756Z,99782.79
2018-10-01T18:43:15.478Z,99783.62
2018-10-01T18:45:43.240Z,99796.13
2018-10-01T18:48:11.022Z,99793.41
2018-10-01T18:50:38.741Z,99797.95
2018-10-01T18:53:06.880Z,99800.92
2018-10-01T18:55:34.776Z,99798.16
2018-10-01T18:58:02.473Z,99800.20
2018-10-01T19:00:30.193Z,99802.94
2018-10-01T19:02:57.909Z,99807.59
2018-10-01T19:05:25.674Z,99819.39
2018-10-01T19:07:53.388Z,99831.05
2018-10-01T19:10:21.242Z,99825.70
2018-10-01T19:12:49.014Z,99826.31
2018-10-01T19:15:16.767Z,99829.02
2018-10-01T19:17:44.481Z,99834.64
2018-10-01T19:20:12.205Z,99838.44
2018-10-01T19:22:39.873Z,99842.25
2018-10-01T19:25:07.635Z,99832.71
2018-10-01T19:27:35.373Z,99832.58
2018-10-01T19:30:03.308Z,99840.37
2018-10-01T19:32:31.055Z,99848.32
2018-10-01T19:34:58.770Z,99828.36
2018-10-01T19:37:26.875Z,99849.94
2018-10-01T19:39:54.599Z,99847.66
2018-10-01T19:42:22.361Z,99848.32
2018-10-01T19:44:50.153Z,99851.97
2018-10-01T19:47:17.900Z,99867.54
2018-10-01T19:49:45.540Z,99864.42
2018-10-01T19:52:13.795Z,99865.59
2018-10-01T19:54:41.684Z,99871.79
2018-10-01T19:57:09.536Z,99871.69
2018-10-01T19:59:37.245Z,99887.05
2018-10-01T20:02:05.204Z,99871.30
2018-10-01T20:04:33.163Z,99883.94
2018-10-01T20:07:00.877Z,99882.66
2018-10-01T20:09:28.654Z,99886.55
2018-10-01T20:11:56.454Z,99899.23
2018-10-01T20:14:24.092Z,99886.67
2018-10-01T20:16:51.874Z,99896.11
2018-10-01T20:19:19.721Z,99888.99
2018-10-01T20:21:47.408Z,99887.75
2018-10-01T20:24:15.197Z,99891.49
2018-10-01T20:26:43.095Z,99886.56
2018-10-01T20:29:10.849Z,99891.27
2018-10-01T20:31:38.536Z,99891.78
2018-10-01T20:34:06.278Z,99898.05
2018-10-01T20:36:34.107Z,99899.03
2018-10-01T20:39:01.732Z,99898.90
2018-10-01T20:41:29.443Z,99910.55
2018-10-01T20:43:57.228Z,99896.84
2018-10-01T20:46:25.032Z,99898.31
2018-10-01T20:48:52.825Z,99898.16
2018-10-01T20:51:20.532Z,99902.02
2018-10-01T20:53:48.421Z,99899.98
2018-10-01T20:56:16.275Z,99901.03
2018-10-01T20:58:44.079Z,99908.00
2018-10-01T21:01:11.993Z,99910.52
2018-10-01T21:03:39.847Z,99906.98
2018-10-01T21:06:07.541Z,99917.16
2018-10-01T21:08:35.364Z,99916.91
2018-10-01T21:11:02.966Z,99919.76
2018-10-01T21:13:30.645Z,99914.44
2018-10-01T21:15:58.372Z,99926.62
2018-10-01T21:18:26.007Z,99927.82
2018-10-01T21:20:53.666Z,99934.98
2018-10-01T21:23:21.349Z,99936.86
2018-10-01T21:25:49.013Z,99936.83
2018-10-01T21:28:16.698Z,99940.68
2018-10-01T21:30:44.483Z,99940.24
2018-10-01T21:33:12.224Z,99947.94
2018-10-01T21:35:39.921Z,99946.37
2018-10-01T21:38:07.582Z,99959.94
2018-10-01T21:40:35.250Z,99955.56
2018-10-01T21:43:02.915Z,99948.89
2018-10-01T21:45:30.580Z,99958.26
2018-10-01T21:47:58.268Z,99948.44
2018-10-01T21:50:25.928Z,99955.20
2018-10-01T21:52:53.604Z,99956.50
2018-10-01T21:55:21.258Z,99965.22
2018-10-01T21:57:49.028Z,99964.38
2018-10-01T22:00:16.801Z,99967.48
2018-10-01T22:02:44.480Z,99980.34
2018-10-01T22:05:12.288Z,99971.19
2018-10-01T22:07:39.958Z,99974.05
2018-10-01T22:10:07.678Z,99976.62
2018-10-01T22:12:35.376Z,99983.33
2018-10-01T22:15:03.112Z,99983.47
2018-10-01T22:17:30.836Z,99985.67
2018-10-01T22:19:58.534Z,99984.33
2018-10-01T22:22:26.199Z,99987.77
2018-10-01T22:24:54.019Z,99973.91
2018-10-01T22:27:21.673Z,99994.88
2018-10-01T22:29:49.423Z,99994.08
2018-10-01T22:32:17.101Z,99989.83
2018-10-01T22:34:44.721Z,99998.12
2018-10-01T22:37:12.457Z,99994.62
2018-10-01T22:39:40.117Z,99992.72
2018-10-01T22:42:07.829Z,99995.52
2018-10-01T22:44:35.535Z,99978.61
2018-10-01T22:47:03.226Z,99991.70
2018-10-01T22:49:30.877Z,99981.56
2018-10-01T22:51:58.636Z,99996.09
2018-10-01T22:54:26.339Z,99987.20
2018-10-01T22:56:53.956Z,99995.94
2018-10-01T22:59:21.574Z,99992.43
2018-10-01T23:01:49.232Z,99995.66
2018-10-01T23:04:16.847Z,99989.97
2018-10-01T23:06:44.417Z,99996.91
2018-10-01T23:09:12.038Z,99995.52
2018-10-01T23:11:39.701Z,99997.35
2018-10-01T23:14:07.333Z,100004.73
2018-10-01T23:16:34.977Z,100009.38
2018-10-01T23:19:02.715Z,100009.48
2018-10-01T23:21:30.485Z,100020.47
2018-10-01T23:23:58.166Z,100005.19
2018-10-01T23:26:25.849Z,100012.38
2018-10-01T23:28:53.623Z,100020.04
2018-10-01T23:31:21.359Z,100011.78
2018-10-01T23:33:49.023Z,100018.52
2018-10-01T23:36:16.633Z,100021.49
2018-10-01T23:38:44.665Z,100015.76
2018-10-01T23:41:12.357Z,100012.42
2018-10-01T23:43:39.984Z,100017.96
2018-10-01T23:46:07.661Z,100019.80
2018-10-01T23:48:35.333Z,100017.38
2018-10-01T23:51:03.019Z,100025.38
2018-10-01T23:53:30.676Z,100031.13
2018-10-01T23:55:58.310Z,100032.19
2018-10-01T23:58:26.008Z,100037.79
